Time;durP1;ratioP1;P1;durP2;ratioP2;P2;SDS_P1;SDS_P2;PMS_P1;PMS_P2;Temp;Humidity;BMP_temperature;BMP_pressure;BME280_temperature;BME280_humidity;BME280_pressure;Samples;Min_cycle;Max_cycle;Signal;HPM_P1;HPM_P2
2021/01/11 00:00:21;;;;;;;0.00;0.00;;;;;;;-2.82;100.00;101431.09;1753088;81;21142;-51
2021/01/11 00:02:50;;;;;;;1.65;0.72;;;;;;;-2.88;100.00;101428.23;1740144;82;21187;-50
2021/01/11 00:05:18;;;;;;;1.75;1.10;;;;;;;-2.93;100.00;101417.20;1740273;82;21147;-50
2021/01/11 00:07:45;;;;;;;0.10;0.10;;;;;;;-2.97;100.00;101403.82;1740503;81;21146;-51
2021/01/11 00:10:13;;;;;;;1.85;0.78;;;;;;;-3.00;100.00;101392.13;1756272;81;21122;-50
2021/01/11 00:12:43;;;;;;;3.67;1.17;;;;;;;-3.05;100.00;101376.58;1756322;81;21181;-51
2021/01/11 00:15:14;;;;;;;0.40;0.40;;;;;;;-3.11;100.00;101374.08;1756426;81;21103;-50
2021/01/11 00:17:43;;;;;;;2.37;1.00;;;;;;;-3.15;100.00;101379.42;1758339;80;21182;-50
2021/01/11 00:20:11;;;;;;;2.45;1.75;;;;;;;-3.19;100.00;101383.45;1756357;81;21414;-51
2021/01/11 00:22:42;;;;;;;2.15;1.95;;;;;;;-3.23;100.00;101387.44;1756501;81;21039;-51
2021/01/11 00:25:11;;;;;;;0.72;0.72;;;;;;;-3.30;100.00;101380.58;1756384;81;21639;-51
2021/01/11 00:27:38;;;;;;;0.42;0.42;;;;;;;-3.35;100.00;101380.75;1756359;81;21149;-51
2021/01/11 00:30:07;;;;;;;0.47;0.47;;;;;;;-3.40;100.00;101384.42;1756350;81;21170;-50
2021/01/11 00:32:35;;;;;;;0.75;0.72;;;;;;;-3.46;100.00;101384.08;1754806;81;21441;-51
2021/01/11 00:35:05;;;;;;;0.40;0.40;;;;;;;-3.50;100.00;101390.73;1750861;81;21123;-51
2021/01/11 00:37:33;;;;;;;0.10;0.10;;;;;;;-3.53;100.00;101388.41;1750837;81;21127;-50
2021/01/11 00:40:00;;;;;;;0.35;0.35;;;;;;;-3.55;100.00;101386.90;1746066;81;21147;-50
2021/01/11 00:42:28;;;;;;;1.42;1.32;;;;;;;-3.57;100.00;101390.23;1750819;81;21434;-51
2021/01/11 00:44:55;;;;;;;0.30;0.30;;;;;;;-3.59;100.00;101394.38;1750819;80;21507;-50
2021/01/11 00:47:23;;;;;;;2.35;0.70;;;;;;;-3.62;100.00;101404.58;1781761;80;21120;-51
2021/01/11 00:49:50;;;;;;;0.15;0.15;;;;;;;-3.64;100.00;101410.07;1781832;80;21162;-50
2021/01/11 00:52:18;;;;;;;0.10;0.10;;;;;;;-3.69;100.00;101418.57;1781850;80;21225;-50
2021/01/11 00:54:45;;;;;;;0.20;0.20;;;;;;;-3.72;100.00;101414.89;1781823;80;21684;-50
2021/01/11 00:57:13;;;;;;;0.80;0.80;;;;;;;-3.76;100.00;101402.87;1781814;80;21099;-51
2021/01/11 00:59:51;;;;;;;0.30;0.30;;;;;;;-3.72;100.00;101398.86;1885474;76;26272;-49
2021/01/11 01:02:20;;;;;;;0.82;0.82;;;;;;;-3.77;100.00;101401.70;1854371;77;21103;-48
2021/01/11 01:04:47;;;;;;;0.95;0.95;;;;;;;-3.80;100.00;101406.03;1854642;77;21115;-49
2021/01/11 01:07:14;;;;;;;0.75;0.75;;;;;;;-3.85;100.00;101403.02;1784884;80;21035;-48
2021/01/11 01:09:41;;;;;;;0.42;0.42;;;;;;;-3.89;100.00;101395.80;1784882;80;21843;-49
2021/01/11 01:12:09;;;;;;;1.32;0.62;;;;;;;-3.93;100.00;101401.98;1785101;80;21683;-48
2021/01/11 01:14:36;;;;;;;0.10;0.10;;;;;;;-3.98;100.00;101413.64;1785063;80;21121;-49
2021/01/11 01:17:04;;;;;;;0.35;0.35;;;;;;;-4.00;100.00;101408.12;1783850;80;21138;-48
2021/01/11 01:19:31;;;;;;;0.10;0.10;;;;;;;-4.04;100.00;101406.27;1803663;79;21135;-49
2021/01/11 01:21:58;;;;;;;0.55;0.55;;;;;;;-4.03;100.00;101403.09;1784989;80;21142;-48
2021/01/11 01:24:26;;;;;;;3.30;1.22;;;;;;;-4.02;100.00;101388.25;1784974;80;21134;-48
2021/01/11 01:26:53;;;;;;;1.00;0.85;;;;;;;-3.97;100.00;101387.77;1785088;80;21115;-48
2021/01/11 01:29:20;;;;;;;2.35;2.17;;;;;;;-3.92;100.00;101395.63;1784821;80;21165;-48
2021/01/11 01:31:47;;;;;;;0.10;0.10;;;;;;;-3.84;100.00;101398.00;1784960;80;21179;-48
2021/01/11 01:34:15;;;;;;;0.35;0.35;;;;;;;-3.77;100.00;101398.52;1785094;80;21178;-48
2021/01/11 01:36:43;;;;;;;0.50;0.50;;;;;;;-3.69;100.00;101403.05;1785099;80;21398;-48
2021/01/11 01:39:10;;;;;;;0.10;0.10;;;;;;;-3.64;100.00;101398.55;1784960;80;21159;-48
2021/01/11 01:41:37;;;;;;;0.10;0.10;;;;;;;-3.58;100.00;101405.42;1785009;80;21162;-48
2021/01/11 01:44:05;;;;;;;1.77;0.85;;;;;;;-3.52;100.00;101409.27;1758865;80;21131;-48
2021/01/11 01:46:32;;;;;;;0.33;0.25;;;;;;;-3.47;100.00;101402.43;1788046;80;21123;-49
2021/01/11 01:49:00;;;;;;;0.20;0.20;;;;;;;-3.40;100.00;101409.30;1787936;80;21135;-48
2021/01/11 01:51:27;;;;;;;1.40;1.37;;;;;;;-3.34;100.00;101413.14;1788076;80;21593;-48
2021/01/11 01:53:55;;;;;;;0.10;0.10;;;;;;;-3.26;100.00;101415.85;1788061;80;21737;-48
2021/01/11 01:56:23;;;;;;;1.12;1.05;;;;;;;-3.18;100.00;101415.85;1759558;80;21154;-48
2021/01/11 01:58:50;;;;;;;1.07;1.07;;;;;;;-3.11;100.00;101408.84;1753930;81;21115;-48
2021/01/11 02:01:17;;;;;;;0.40;0.40;;;;;;;-3.04;100.00;101410.36;1777778;80;21984;-48
2021/01/11 02:03:45;;;;;;;2.10;2.00;;;;;;;-2.97;100.00;101417.19;1777747;80;21136;-48
2021/01/11 02:06:13;;;;;;;0.65;0.65;;;;;;;-2.92;100.00;101420.20;1777873;80;21191;-48
2021/01/11 02:08:53;;;;;;;7.42;0.65;;;;;;;-2.86;100.00;101430.25;1777721;80;21135;-48
2021/01/11 02:11:47;;;;;;;1.75;0.78;;;;;;;-2.81;100.00;101431.92;1777263;80;21151;-48
2021/01/11 02:14:51;;;;;;;0.98;0.98;;;;;;;-2.75;100.00;101432.56;1777163;80;21518;-48
2021/01/11 02:17:21;;;;;;;0.40;0.40;;;;;;;-2.69;100.00;101433.25;1776858;80;21112;-48
2021/01/11 02:20:39;;;;;;;0.25;0.25;;;;;;;-2.64;100.00;101421.53;1775495;80;21147;-48
2021/01/11 02:23:50;;;;;;;0.53;0.53;;;;;;;-2.58;100.00;101428.55;1777115;80;21281;-48
2021/01/11 02:26:48;;;;;;;0.10;0.10;;;;;;;-2.55;100.00;101425.02;1686930;85;21208;-48
2021/01/11 02:30:01;;;;;;;2.90;1.55;;;;;;;-2.46;100.00;101415.98;1858812;75;28306;-48
2021/01/11 02:32:29;;;;;;;0.10;0.10;;;;;;;-2.43;100.00;101422.33;1744452;81;21648;-48
2021/01/11 02:35:02;;;;;;;0.33;0.33;;;;;;;-2.35;100.00;101413.44;1744558;80;21462;-48
2021/01/11 02:37:29;;;;;;;4.17;0.33;;;;;;;-2.30;100.00;101406.24;1786443;78;21125;-48
2021/01/11 02:39:57;;;;;;;1.25;0.30;;;;;;;-2.28;100.00;101402.89;1823995;78;21149;-48
2021/01/11 02:42:24;;;;;;;0.20;0.20;;;;;;;-2.26;100.00;101404.39;1825021;78;21098;-48
2021/01/11 02:44:52;;;;;;;0.25;0.25;;;;;;;-2.23;100.00;101402.70;1788515;80;21086;-48
2021/01/11 02:47:23;;;;;;;0.10;0.10;;;;;;;-2.21;100.00;101414.08;1788471;80;21552;-48
2021/01/11 02:49:53;;;;;;;0.10;0.10;;;;;;;-2.18;100.00;101412.42;1726532;81;21170;-48
2021/01/11 02:52:23;;;;;;;0.00;0.00;;;;;;;-2.14;100.00;101410.73;1774528;80;21233;-49
2021/01/11 02:54:55;;;;;;;0.45;0.45;;;;;;;-2.13;100.00;101410.54;1754984;81;21135;-48
2021/01/11 02:58:08;;;;;;;0.37;0.37;;;;;;;-2.11;100.00;101409.87;1782072;80;21197;-48
2021/01/11 03:00:36;;;;;;;;;;;;;;;-2.10;100.00;101414.72;1757409;80;21597;-48
2021/01/11 03:03:05;;;;;;;0.40;0.40;;;;;;;-2.07;100.00;101415.73;1782549;80;20459;-49
2021/01/11 03:05:32;;;;;;;0.30;0.30;;;;;;;-2.07;100.00;101409.87;1782478;80;21548;-48
2021/01/11 03:08:00;;;;;;;0.70;0.30;;;;;;;-2.05;100.00;101412.35;1751979;80;21139;-48
2021/01/11 03:10:27;;;;;;;0.10;0.10;;;;;;;-2.05;100.00;101410.53;1782532;80;21154;-48
2021/01/11 03:12:54;;;;;;;0.37;0.37;;;;;;;-2.05;100.00;101407.86;1782961;80;21544;-48
2021/01/11 03:15:22;;;;;;;0.20;0.20;;;;;;;-2.04;100.00;101418.89;1783611;80;21130;-49
2021/01/11 03:17:49;;;;;;;0.47;0.47;;;;;;;-2.04;100.00;101422.08;1783707;80;21146;-49
2021/01/11 03:20:16;;;;;;;0.42;0.42;;;;;;;-2.02;100.00;101438.81;1783575;80;21125;-49
2021/01/11 03:22:43;;;;;;;0.20;0.20;;;;;;;-2.03;100.00;101443.34;1783730;80;21087;-49
2021/01/11 03:25:11;;;;;;;0.08;0.08;;;;;;;-2.01;100.00;101448.51;1783640;80;21090;-49
2021/01/11 03:27:39;;;;;;;0.72;0.62;;;;;;;-2.00;100.00;101448.86;1783429;80;21225;-49
2021/01/11 03:30:07;;;;;;;0.00;0.00;;;;;;;-1.99;100.00;101458.55;1783680;80;21482;-49
2021/01/11 03:32:34;;;;;;;0.33;0.33;;;;;;;-1.98;100.00;101461.55;1783602;80;21201;-49
2021/01/11 03:35:02;;;;;;;9.50;0.98;;;;;;;-1.95;100.00;101463.91;1783423;80;21106;-49
2021/01/11 03:37:29;;;;;;;0.00;0.00;;;;;;;-1.95;100.00;101460.72;1783608;80;21126;-49
2021/01/11 03:39:57;;;;;;;0.10;0.10;;;;;;;-1.94;100.00;101465.56;1783301;80;20967;-49
2021/01/11 03:42:24;;;;;;;0.20;0.20;;;;;;;-1.95;100.00;101460.72;1783137;80;21126;-49
2021/01/11 03:44:52;;;;;;;0.10;0.10;;;;;;;-1.95;100.00;101464.73;1783097;80;21556;-49
2021/01/11 03:47:19;;;;;;;0.20;0.20;;;;;;;-1.96;100.00;101475.61;1783059;80;21146;-49
2021/01/11 03:49:47;;;;;;;0.30;0.30;;;;;;;-1.96;100.00;101470.25;1782941;80;21178;-49
2021/01/11 03:52:14;;;;;;;3.15;0.45;;;;;;;-1.96;100.00;101471.59;1782978;80;21150;-50
2021/01/11 03:54:43;;;;;;;0.65;0.65;;;;;;;-1.98;100.00;101469.11;1782921;80;21115;-50
2021/01/11 03:57:10;;;;;;;0.20;0.20;;;;;;;-1.99;100.00;101470.61;1783047;80;21098;-50
2021/01/11 03:59:37;;;;;;;0.10;0.10;;;;;;;-1.99;100.00;101473.28;1783002;80;21134;-49
2021/01/11 04:02:04;;;;;;;0.00;0.00;;;;;;;-2.00;100.00;101472.45;1783100;80;21123;-49
2021/01/11 04:04:31;;;;;;;0.25;0.25;;;;;;;-2.00;100.00;101471.63;1783044;80;21094;-48
2021/01/11 04:06:59;;;;;;;2.35;0.40;;;;;;;-2.00;100.00;101479.66;1782979;80;21083;-49
2021/01/11 04:09:26;;;;;;;0.30;0.30;;;;;;;-2.00;100.00;101477.81;1781787;80;21126;-49
2021/01/11 04:11:53;;;;;;;0.00;0.00;;;;;;;-2.01;100.00;101479.31;1781831;80;21689;-49
2021/01/11 04:14:20;;;;;;;0.40;0.40;;;;;;;-2.00;100.00;101475.64;1781863;80;21154;-49
2021/01/11 04:16:53;;;;;;;1.07;0.45;;;;;;;-2.02;100.00;101474.97;1781829;80;21462;-49
2021/01/11 04:19:20;;;;;;;0.10;0.10;;;;;;;-2.03;100.00;101477.30;1782032;80;21131;-49
2021/01/11 04:21:47;;;;;;;0.10;0.10;;;;;;;-2.04;100.00;101479.66;1781750;80;21115;-49
2021/01/11 04:24:15;;;;;;;0.45;0.45;;;;;;;-2.04;100.00;101494.39;1781891;80;21111;-49
2021/01/11 04:26:46;;;;;;;0.10;0.10;;;;;;;-2.05;100.00;101493.56;1781960;80;21805;-50
2021/01/11 04:29:13;;;;;;;0.35;0.20;;;;;;;-2.06;100.00;101491.88;1784066;80;21139;-49
2021/01/11 04:31:40;;;;;;;0.10;0.10;;;;;;;-2.06;100.00;101492.39;1785528;80;21116;-50
2021/01/11 04:34:08;;;;;;;0.03;0.03;;;;;;;-2.07;100.00;101489.39;1785534;80;21567;-49
2021/01/11 04:36:35;;;;;;;0.10;0.10;;;;;;;-2.06;100.00;101478.99;1790554;79;21118;-49
2021/01/11 04:39:03;;;;;;;0.45;0.45;;;;;;;-2.07;100.00;101476.83;1793868;79;21102;-49
2021/01/11 04:41:36;;;;;;;0.50;0.37;;;;;;;-2.07;100.00;101475.48;1794155;79;21153;-49
2021/01/11 04:44:08;;;;;;;0.10;0.10;;;;;;;-2.07;100.00;101471.98;1727206;83;21571;-49
2021/01/11 04:46:35;;;;;;;0.10;0.10;;;;;;;-2.06;99.84;101479.82;1724858;83;21137;-49
2021/01/11 04:49:05;;;;;;;0.10;0.10;;;;;;;-2.07;99.66;101470.64;1734871;82;21127;-49
2021/01/11 04:51:33;;;;;;;0.00;0.00;;;;;;;-2.08;99.52;101464.94;1735011;82;21135;-49
2021/01/11 04:54:00;;;;;;;0.25;0.25;;;;;;;-2.11;99.41;101462.60;1734888;82;21146;-49
2021/01/11 04:56:28;;;;;;;0.00;0.00;;;;;;;-2.14;99.34;101460.28;1735028;82;21134;-49
2021/01/11 04:58:59;;;;;;;0.40;0.40;;;;;;;-2.18;99.21;101456.61;1698273;83;21154;-49
2021/01/11 05:01:28;;;;;;;0.10;0.10;;;;;;;-2.22;99.00;101453.92;1735196;82;21135;-50
2021/01/11 05:04:01;;;;;;;0.05;0.05;;;;;;;-2.26;98.84;101467.31;1734977;82;21247;-49
2021/01/11 05:06:28;;;;;;;0.08;0.08;;;;;;;-2.30;98.76;101467.34;1735044;82;21170;-49
2021/01/11 05:09:06;;;;;;;0.20;0.20;;;;;;;-2.32;98.69;101473.36;1708327;82;21158;-49
2021/01/11 05:11:34;;;;;;;0.10;0.10;;;;;;;-2.34;98.62;101482.57;1737860;82;21522;-49
2021/01/11 05:14:02;;;;;;;0.30;0.30;;;;;;;-2.40;98.50;101472.02;1737867;82;21127;-49
2021/01/11 05:16:29;;;;;;;0.08;0.08;;;;;;;-2.44;98.39;101470.19;1737972;82;21150;-49
2021/01/11 05:19:22;;;;;;;0.17;0.17;;;;;;;-2.45;98.42;101473.02;1737795;82;21183;-49
2021/01/11 05:21:51;;;;;;;0.00;0.00;;;;;;;-2.45;98.44;101473.89;1737599;82;21147;-49
2021/01/11 05:24:34;;;;;;;0.20;0.08;;;;;;;-2.44;98.45;101478.22;1737830;82;21155;-49
2021/01/11 05:27:06;;;;;;;0.00;0.00;;;;;;;-2.44;98.48;101478.73;1737952;82;21130;-50
2021/01/11 05:29:34;;;;;;;0.37;0.37;;;;;;;-2.42;98.48;101495.46;1769581;80;21150;-50
2021/01/11 05:32:04;;;;;;;0.45;0.45;;;;;;;-2.42;98.43;101494.13;1772415;80;21170;-49
2021/01/11 05:34:51;;;;;;;0.10;0.10;;;;;;;-2.44;98.39;101498.80;1764171;79;21146;-49
2021/01/11 05:37:42;;;;;;;0.05;0.05;;;;;;;-2.47;98.33;101495.14;1761669;81;21591;-49
2021/01/11 05:40:13;;;;;;;0.00;0.00;;;;;;;-2.47;98.35;101495.14;1794330;79;21479;-49
2021/01/11 05:42:42;;;;;;;1.25;0.68;;;;;;;-2.49;98.35;101496.62;1761157;81;21130;-49
2021/01/11 05:45:19;;;;;;;0.00;0.00;;;;;;;-2.47;98.35;101495.14;1793945;79;21137;-49
2021/01/11 05:48:09;;;;;;;0.37;0.37;;;;;;;-2.49;98.34;101500.64;1760921;81;21174;-49
2021/01/11 05:50:44;;;;;;;0.23;0.23;;;;;;;-2.49;98.33;101501.98;1762286;79;21147;-49
2021/01/11 05:53:27;;;;;;;4.72;0.37;;;;;;;-2.49;98.35;101501.16;1785273;80;21557;-49
2021/01/11 05:55:55;;;;;;;0.30;0.30;;;;;;;-2.49;98.29;101506.50;1772342;80;21166;-49
2021/01/11 05:58:25;;;;;;;0.17;0.17;;;;;;;-2.50;98.27;101506.16;1759093;81;21134;-50
2021/01/11 06:00:53;;;;;;;0.20;0.20;;;;;;;-2.52;98.23;101509.49;1785190;80;21104;-49
2021/01/11 06:03:20;;;;;;;0.37;0.37;;;;;;;-2.54;98.22;101516.88;1772171;80;21651;-49
2021/01/11 06:05:47;;;;;;;0.30;0.30;;;;;;;-2.55;98.12;101515.19;1772648;80;21150;-49
2021/01/11 06:08:15;;;;;;;3.87;0.88;;;;;;;-2.56;98.04;101518.37;1772665;80;21137;-49
2021/01/11 06:10:45;;;;;;;0.60;0.60;;;;;;;-2.57;97.96;101516.71;1772658;80;21122;-49
2021/01/11 06:13:14;;;;;;;0.70;0.55;;;;;;;-2.58;97.89;101511.52;1772843;80;21431;-49
2021/01/11 06:15:42;;;;;;;0.40;0.40;;;;;;;-2.60;97.89;101509.86;1772826;80;21608;-49
2021/01/11 06:18:13;;;;;;;0.15;0.15;;;;;;;-2.60;97.84;101508.52;1772241;80;21135;-48
2021/01/11 06:20:45;;;;;;;0.33;0.33;;;;;;;-2.60;97.84;101510.33;1776722;80;21118;-48
2021/01/11 06:23:25;;;;;;;0.20;0.20;;;;;;;-2.61;97.85;101510.84;1775530;79;21134;-49
2021/01/11 06:25:52;;;;;;;0.55;0.55;;;;;;;-2.61;97.83;101508.67;1785450;80;21700;-51
2021/01/11 06:28:31;;;;;;;0.20;0.20;;;;;;;-2.62;97.88;101519.05;1769688;80;21181;-49
2021/01/11 06:31:10;;;;;;;0.23;0.23;;;;;;;-2.63;97.91;101518.19;1755700;81;21150;-49
2021/01/11 06:33:39;;;;;;;0.20;0.20;;;;;;;-2.62;97.94;101517.20;1755291;79;21630;-49
2021/01/11 06:36:29;;;;;;;1.57;0.78;;;;;;;-2.62;98.00;101511.86;1735385;81;21142;-49
2021/01/11 06:38:57;;;;;;;0.57;0.57;;;;;;;-2.60;98.06;101510.33;1757786;80;21731;-49
2021/01/11 06:41:27;;;;;;;0.68;0.68;;;;;;;-2.57;98.08;101511.84;1707903;80;21115;-49
2021/01/11 06:44:05;;;;;;;0.37;0.37;;;;;;;-2.56;98.06;101502.31;1755961;81;21807;-49
2021/01/11 06:46:44;;;;;;;0.55;0.55;;;;;;;-2.55;98.07;101497.80;1773826;80;21604;-49
2021/01/11 06:49:25;;;;;;;0.85;0.37;;;;;;;-2.53;98.04;101505.16;1759341;80;20992;-49
2021/01/11 06:52:07;;;;;;;0.78;0.78;;;;;;;-2.53;98.06;101507.84;1753618;81;21119;-49
2021/01/11 06:54:43;;;;;;;;;;;;;;;-2.53;98.08;101503.31;1785473;80;21985;-49
2021/01/11 06:57:17;;;;;;;0.40;0.40;;;;;;;-2.52;98.07;101511.70;1772487;80;20291;-49
2021/01/11 06:59:47;;;;;;;1.55;1.45;;;;;;;-2.54;98.03;101503.50;1775938;80;21166;-49
2021/01/11 07:02:24;;;;;;;5.58;0.88;;;;;;;-2.56;97.95;101505.50;1754988;80;21178;-49
2021/01/11 07:04:53;;;;;;;0.40;0.40;;;;;;;-2.58;97.86;101515.53;1774093;78;21134;-49
2021/01/11 07:07:24;;;;;;;0.33;0.33;;;;;;;-2.60;97.81;101510.33;1767132;80;21131;-49
2021/01/11 07:10:02;;;;;;;7.28;1.55;;;;;;;-2.60;97.79;101507.66;1810247;76;28116;-48
2021/01/11 07:12:30;;;;;;;0.80;0.80;;;;;;;-2.67;97.74;101504.83;1783082;80;21149;-48
2021/01/11 07:15:09;;;;;;;3.85;0.65;;;;;;;-2.70;97.74;101501.13;1784869;78;21430;-48
2021/01/11 07:17:48;;;;;;;0.50;0.50;;;;;;;-2.72;97.69;101505.84;1785111;80;21152;-48
2021/01/11 07:20:20;;;;;;;0.60;0.60;;;;;;;-2.73;97.74;101510.83;1776874;80;21118;-49
2021/01/11 07:22:50;;;;;;;0.42;0.42;;;;;;;-2.73;97.80;101520.20;1782879;80;21126;-48
2021/01/11 07:25:22;;;;;;;2.33;0.62;;;;;;;-2.73;97.88;101517.52;1774114;80;21446;-48
2021/01/11 07:28:00;;;;;;;0.00;0.00;;;;;;;-2.73;97.90;101510.83;1765812;80;21142;-48
2021/01/11 07:30:28;;;;;;;0.20;0.20;;;;;;;-2.70;97.96;101509.66;1772366;79;21103;-48
2021/01/11 07:32:56;;;;;;;0.90;0.90;;;;;;;-2.69;98.04;101509.51;1774667;80;21269;-48
2021/01/11 07:35:24;;;;;;;0.20;0.20;;;;;;;-2.65;98.13;101509.48;1779756;80;21446;-49
2021/01/11 07:37:52;;;;;;;0.10;0.10;;;;;;;-2.61;98.19;101515.36;1781564;80;21427;-48
2021/01/11 07:40:22;;;;;;;1.45;0.62;;;;;;;-2.58;98.21;101513.69;1784527;78;21542;-49
2021/01/11 07:42:50;;;;;;;0.17;0.17;;;;;;;-2.56;98.18;101504.99;1806580;78;21446;-48
2021/01/11 07:45:18;;;;;;;0.35;0.30;;;;;;;-2.55;98.13;101504.48;1783941;80;21115;-48
2021/01/11 07:47:51;;;;;;;0.20;0.20;;;;;;;-2.51;98.12;101503.16;1780436;80;21136;-49
2021/01/11 07:50:20;;;;;;;0.42;0.42;;;;;;;-2.46;98.11;101506.16;1786487;78;21389;-48
2021/01/11 07:52:48;;;;;;;0.20;0.20;;;;;;;-2.40;98.11;101504.14;1785630;80;21931;-48
2021/01/11 07:55:15;;;;;;;1.90;0.60;;;;;;;-2.30;98.10;101511.52;1784601;78;21138;-48
2021/01/11 07:57:43;;;;;;;0.47;0.47;;;;;;;-2.20;98.02;101507.30;1751757;80;21126;-48
2021/01/11 08:00:12;;;;;;;0.30;0.30;;;;;;;-2.09;97.84;101520.86;1785563;80;21568;-48
2021/01/11 08:02:46;;;;;;;0.00;0.00;;;;;;;-2.02;97.66;101516.50;1764303;80;21703;-48
2021/01/11 08:05:21;;;;;;;0.17;0.17;;;;;;;-1.95;97.33;101510.79;1780232;78;21261;-48
2021/01/11 08:07:57;;;;;;;0.28;0.28;;;;;;;-1.92;96.63;101513.12;1782152;80;21142;-48
2021/01/11 08:10:25;;;;;;;0.30;0.30;;;;;;;-1.88;96.48;101510.44;1784628;78;21161;-51
2021/01/11 08:12:54;;;;;;;1.98;0.55;;;;;;;-1.84;96.33;101518.45;1785015;80;21126;-51
2021/01/11 08:15:22;;;;;;;3.42;0.33;;;;;;;-1.80;95.63;101515.77;1696420;80;21163;-51
2021/01/11 08:17:50;;;;;;;0.30;0.30;;;;;;;-1.79;95.35;101512.06;1784970;78;21134;-51
2021/01/11 08:20:24;;;;;;;0.40;0.40;;;;;;;-1.76;95.35;101519.75;1778932;80;21155;-51
2021/01/11 08:22:52;;;;;;;0.10;0.10;;;;;;;-1.70;95.12;101528.97;1784540;80;21145;-51
2021/01/11 08:25:20;;;;;;;0.05;0.05;;;;;;;-1.64;94.86;101532.80;1782656;80;21123;-51
2021/01/11 08:27:49;;;;;;;0.10;0.10;;;;;;;-1.58;94.60;101538.31;1755024;80;21106;-51
2021/01/11 08:30:20;;;;;;;0.20;0.20;;;;;;;-1.52;94.14;101536.78;1785079;78;21154;-51
2021/01/11 08:32:46;;;;;;;0.23;0.23;;;;;;;-1.46;93.63;101536.06;1785175;80;21505;-51
2021/01/11 08:35:17;;;;;;;0.08;0.08;;;;;;;-1.40;93.27;101534.56;1730257;80;21134;-51
2021/01/11 08:37:44;;;;;;;0.47;0.47;;;;;;;-1.34;92.72;101523.12;1783699;80;21147;-52
2021/01/11 08:40:20;;;;;;;0.08;0.08;;;;;;;-1.28;92.36;101522.95;1783498;80;21179;-51
2021/01/11 08:42:48;;;;;;;0.03;0.03;;;;;;;-1.21;91.68;101527.92;1777544;80;21162;-52
2021/01/11 08:45:35;;;;;;;0.62;0.62;;;;;;;-1.16;91.48;101525.57;1758806;80;21628;-52
2021/01/11 08:48:14;;;;;;;0.10;0.10;;;;;;;-1.10;91.06;101523.52;1748155;80;21126;-52
2021/01/11 08:50:54;;;;;;;0.00;0.00;;;;;;;-1.06;90.92;101512.77;1758554;81;21146;-51
2021/01/11 08:53:27;;;;;;;0.00;0.00;;;;;;;-1.00;90.69;101513.90;1760244;80;21177;-51
2021/01/11 08:56:07;;;;;;;2.05;0.33;;;;;;;-0.96;90.29;101519.25;1773354;79;21154;-52
2021/01/11 08:58:38;;;;;;;0.10;0.10;;;;;;;-0.91;90.29;101524.92;1754095;80;21202;-52
2021/01/11 09:01:14;;;;;;;0.10;0.10;;;;;;;-0.84;89.23;101521.00;1784821;78;21118;-51
2021/01/11 09:03:52;;;;;;;0.30;0.30;;;;;;;-0.82;89.21;101519.80;1778646;80;21165;-52
2021/01/11 09:06:42;;;;;;;0.10;0.10;;;;;;;-0.73;89.07;101525.97;1781454;80;21138;-52
2021/01/11 09:09:17;;;;;;;0.20;0.20;;;;;;;-0.69;88.25;101515.20;1779116;80;21123;-51
2021/01/11 09:11:48;;;;;;;0.10;0.10;;;;;;;-0.66;87.19;101517.53;1789628;80;21189;-51
2021/01/11 09:14:17;;;;;;;0.00;0.00;;;;;;;-0.67;87.06;101516.70;1786875;80;21174;-51
2021/01/11 09:16:46;;;;;;;0.10;0.10;;;;;;;-0.62;87.25;101518.82;1786663;80;21158;-51
2021/01/11 09:19:16;;;;;;;0.30;0.17;;;;;;;-0.52;87.17;101520.78;1786918;80;21115;-51
2021/01/11 09:21:47;;;;;;;0.35;0.35;;;;;;;-0.36;86.94;101515.77;1789632;80;21259;-52
2021/01/11 09:24:14;;;;;;;0.00;0.00;;;;;;;-0.19;86.76;101507.06;1789178;80;21503;-52
2021/01/11 09:26:42;;;;;;;0.53;0.42;;;;;;;-0.01;86.26;101508.88;1787023;80;21652;-52
2021/01/11 09:29:10;;;;;;;0.10;0.10;;;;;;;0.10;85.28;101510.30;1786996;80;21148;-51
2021/01/11 09:31:37;;;;;;;0.10;0.10;;;;;;;0.17;85.17;101507.69;1788377;80;21113;-52
2021/01/11 09:34:05;;;;;;;0.10;0.10;;;;;;;0.31;85.03;101504.69;1791331;80;21190;-51
2021/01/11 09:36:37;;;;;;;0.10;0.10;;;;;;;0.44;84.68;101512.92;1791265;80;21137;-51
2021/01/11 09:39:06;;;;;;;0.40;0.40;;;;;;;0.56;83.86;101510.08;1789884;80;21414;-51
2021/01/11 09:41:53;;;;;;;0.65;0.65;;;;;;;0.62;83.24;101508.00;1755946;80;21527;-52
2021/01/11 09:44:21;;;;;;;0.00;0.00;;;;;;;0.66;82.62;101514.34;1753786;80;21138;-51
2021/01/11 09:46:52;;;;;;;0.10;0.10;;;;;;;0.66;82.03;101508.45;1781849;80;21150;-52
2021/01/11 09:49:21;;;;;;;0.30;0.30;;;;;;;0.64;81.47;101506.45;1758133;80;26090;-51
2021/01/11 09:51:49;;;;;;;0.55;0.55;;;;;;;0.57;80.33;101504.19;1754046;81;21121;-51
2021/01/11 09:54:18;;;;;;;1.35;0.35;;;;;;;0.51;80.36;101500.40;1754069;81;21157;-51
2021/01/11 09:56:45;;;;;;;0.40;0.28;;;;;;;0.44;79.49;101496.78;1774709;78;21109;-51
2021/01/11 09:59:14;;;;;;;0.80;0.80;;;;;;;0.35;79.64;101497.41;1812085;78;21166;-51
2021/01/11 10:01:46;;;;;;;0.00;0.00;;;;;;;0.33;79.73;101492.72;1787190;78;21126;-52
2021/01/11 10:04:18;;;;;;;0.05;0.05;;;;;;;0.31;79.30;101491.24;1783402;80;21129;-51
2021/01/11 10:06:50;;;;;;;0.55;0.55;;;;;;;0.25;79.53;101487.94;1769175;80;21115;-51
2021/01/11 10:09:29;;;;;;;0.20;0.20;;;;;;;0.22;79.35;101490.48;1786780;78;21553;-51
2021/01/11 10:12:05;;;;;;;0.10;0.10;;;;;;;0.20;79.68;101489.86;1783908;80;21586;-52
2021/01/11 10:14:33;;;;;;;0.00;0.00;;;;;;;0.18;79.76;101491.90;1790602;79;21560;-51
2021/01/11 10:17:01;;;;;;;1.15;0.53;;;;;;;0.15;79.78;101489.59;1790841;80;21142;-52
2021/01/11 10:19:30;;;;;;;0.10;0.10;;;;;;;0.11;79.99;101491.80;1788673;80;21102;-52
2021/01/11 10:22:02;;;;;;;0.45;0.45;;;;;;;0.06;79.97;101486.14;1774306;79;21749;-51
2021/01/11 10:24:30;;;;;;;0.30;0.30;;;;;;;-0.01;80.22;101490.06;1788671;78;21146;-52
2021/01/11 10:26:58;;;;;;;0.75;0.47;;;;;;;-0.05;80.40;101490.13;1785786;78;21177;-52
2021/01/11 10:29:25;;;;;;;0.25;0.25;;;;;;;-0.02;80.48;101489.75;1786244;78;21137;-52
2021/01/11 10:31:54;;;;;;;0.72;0.72;;;;;;;-0.06;80.30;101487.09;1785229;80;21114;-52
2021/01/11 10:34:22;;;;;;;0.60;0.60;;;;;;;-0.10;80.40;101483.61;1776381;80;21133;-52
2021/01/11 10:36:51;;;;;;;0.55;0.55;;;;;;;-0.11;80.66;101481.95;1789027;80;21133;-51
2021/01/11 10:39:21;;;;;;;0.45;0.45;;;;;;;-0.11;80.71;101478.76;1790296;80;21721;-52
2021/01/11 10:41:53;;;;;;;0.30;0.30;;;;;;;-0.08;80.84;101473.52;1769536;80;21518;-51
2021/01/11 10:44:22;;;;;;;0.30;0.30;;;;;;;-0.05;80.88;101481.20;1759550;80;21161;-52
2021/01/11 10:46:51;;;;;;;0.53;0.53;;;;;;;-0.03;80.86;101484.03;1759591;81;21138;-52
2021/01/11 10:49:20;;;;;;;0.20;0.20;;;;;;;-0.01;81.08;101471.77;1773422;80;21182;-52
2021/01/11 10:51:48;;;;;;;1.77;0.33;;;;;;;-0.04;80.75;101489.09;1790347;80;21153;-52
2021/01/11 10:54:16;;;;;;;0.10;0.10;;;;;;;-0.07;80.81;101484.61;1790301;78;21429;-51
2021/01/11 10:56:45;;;;;;;0.95;0.47;;;;;;;-0.05;80.96;101488.78;1790936;80;21472;-51
2021/01/11 10:59:13;;;;;;;2.40;1.22;;;;;;;-0.04;80.70;101494.47;1791212;78;21146;-51
2021/01/11 11:01:41;;;;;;;0.15;0.15;;;;;;;-0.09;80.37;101492.84;1786140;80;21146;-51
2021/01/11 11:04:11;;;;;;;0.72;0.72;;;;;;;-0.14;80.67;101488.53;1785073;80;21361;-51
2021/01/11 11:06:38;;;;;;;0.17;0.17;;;;;;;-0.15;80.74;101489.53;1770329;80;21478;-51
2021/01/11 11:09:08;;;;;;;0.57;0.17;;;;;;;-0.13;80.60;101479.45;1752556;81;21640;-51
2021/01/11 11:11:35;;;;;;;0.20;0.20;;;;;;;-0.14;80.77;101483.16;1762794;80;21115;-51
2021/01/11 11:14:04;;;;;;;0.50;0.50;;;;;;;-0.13;80.48;101486.67;1758851;80;21147;-51
2021/01/11 11:16:32;;;;;;;0.62;0.47;;;;;;;-0.15;80.33;101481.98;1747873;82;21139;-51
2021/01/11 11:19:00;;;;;;;3.45;2.12;;;;;;;-0.14;80.49;101482.33;1777914;80;21119;-52
2021/01/11 11:21:29;;;;;;;0.47;0.47;;;;;;;-0.12;80.58;101486.50;1781423;80;21170;-51
2021/01/11 11:23:58;;;;;;;0.20;0.20;;;;;;;-0.09;80.41;101489.33;1779391;78;21660;-52
2021/01/11 11:26:25;;;;;;;0.10;0.10;;;;;;;-0.10;80.23;101483.61;1784753;80;21127;-51
2021/01/11 11:28:53;;;;;;;0.62;0.62;;;;;;;-0.08;80.17;101487.78;1778833;80;21287;-51
2021/01/11 11:31:21;;;;;;;0.37;0.37;;;;;;;-0.06;79.92;101488.95;1776161;80;21109;-51
2021/01/11 11:33:50;;;;;;;1.40;0.75;;;;;;;-0.05;79.93;101488.78;1768388;79;21103;-51
2021/01/11 11:36:21;;;;;;;0.10;0.10;;;;;;;-0.01;79.70;101487.89;1783282;80;21103;-51
2021/01/11 11:38:48;;;;;;;0.47;0.45;;;;;;;0.02;79.60;101486.69;1783223;80;21130;-51
2021/01/11 11:41:19;;;;;;;0.20;0.20;;;;;;;0.04;79.42;101481.97;1770052;80;21173;-51